createdAt,value
2022-08-04T00:00:14.400Z,9.35
2022-08-04T00:02:57.488Z,5.82
2022-08-04T00:05:42.607Z,5.97
2022-08-04T00:08:19.951Z,5.43
2022-08-04T00:10:52.367Z,6.15
2022-08-04T00:13:24.792Z,6.15
2022-08-04T00:15:59.223Z,6.28
2022-08-04T00:18:34.312Z,5.95
2022-08-04T00:21:07.640Z,5.95
2022-08-04T00:24:11.969Z,6.05
2022-08-04T00:26:28.552Z,7.10
2022-08-04T00:28:57.432Z,6.75
2022-08-04T00:31:53.914Z,6.00
2022-08-04T00:34:14.986Z,6.25
2022-08-04T00:36:45.796Z,6.32
2022-08-04T00:39:15.746Z,8.05
2022-08-04T00:41:57.942Z,6.60
2022-08-04T00:44:37.838Z,5.90
2022-08-04T00:47:19.982Z,6.18
2022-08-04T00:50:06.889Z,6.20
2022-08-04T00:52:45.498Z,6.10
2022-08-04T00:55:45.479Z,6.78
2022-08-04T00:58:30.348Z,6.65
2022-08-04T01:01:02.742Z,6.25
2022-08-04T01:03:49.262Z,5.75
2022-08-04T01:06:30.732Z,6.75
2022-08-04T01:09:37.527Z,15.45
2022-08-04T01:12:17.690Z,6.45
2022-08-04T01:15:07.697Z,6.30
2022-08-04T01:17:49.545Z,6.10
2022-08-04T01:20:25.578Z,6.10
2022-08-04T01:23:44.703Z,7.07
2022-08-04T01:26:56.578Z,28.23
2022-08-04T01:29:36.394Z,6.60
2022-08-04T01:32:20.949Z,7.18
2022-08-04T01:34:57.743Z,6.80
2022-08-04T01:37:41.103Z,7.93
2022-08-04T01:40:09.978Z,7.35
2022-08-04T01:42:38.650Z,6.53
2022-08-04T01:45:10.374Z,6.35
2022-08-04T01:47:39.718Z,7.40
2022-08-04T01:50:09.777Z,7.93
2022-08-04T01:52:38.913Z,6.45
2022-08-04T01:55:10.493Z,7.45
2022-08-04T01:57:43.540Z,6.22
2022-08-04T02:00:15.311Z,6.97
2022-08-04T02:02:45.285Z,7.43
2022-08-04T02:05:15.829Z,6.90
2022-08-04T02:07:56.110Z,6.72
2022-08-04T02:10:30.420Z,7.95
2022-08-04T02:13:12.881Z,7.00
2022-08-04T02:15:50.886Z,7.68
2022-08-04T02:18:24.980Z,7.68
2022-08-04T02:20:58.615Z,7.32
2022-08-04T02:23:32.444Z,6.93
2022-08-04T02:26:05.866Z,8.23
2022-08-04T02:28:41.248Z,7.22
2022-08-04T02:31:24.335Z,8.10
2022-08-04T02:34:06.804Z,7.70
2022-08-04T02:36:37.889Z,7.30
2022-08-04T02:39:08.250Z,7.13
2022-08-04T02:41:37.856Z,7.70
2022-08-04T02:44:07.401Z,7.43
2022-08-04T02:46:37.824Z,7.72
2022-08-04T02:49:07.376Z,8.00
2022-08-04T02:51:37.082Z,8.02
2022-08-04T02:54:06.405Z,7.47
2022-08-04T02:56:37.467Z,7.55
2022-08-04T02:59:08.633Z,7.63
2022-08-04T03:01:56.870Z,8.68
2022-08-04T03:04:42.720Z,7.93
2022-08-04T03:07:33.980Z,8.55
2022-08-04T03:10:54.928Z,8.00
2022-08-04T03:13:53.562Z,12.07
2022-08-04T03:17:27.744Z,9.25
2022-08-04T03:20:29.369Z,10.32
2022-08-04T03:23:30.588Z,7.68
2022-08-04T03:26:30.963Z,9.35
2022-08-04T03:29:16.343Z,9.27
2022-08-04T03:32:29.882Z,8.68
2022-08-04T03:35:27.141Z,8.77
2022-08-04T03:38:18.928Z,8.98
2022-08-04T03:41:10.167Z,9.80
2022-08-04T03:44:23.188Z,8.55
2022-08-04T03:47:21.617Z,11.23
2022-08-04T03:50:38.249Z,9.63
2022-08-04T03:53:30.289Z,9.33
2022-08-04T03:56:28.096Z,9.40
2022-08-04T03:59:34.669Z,9.43
2022-08-04T04:02:32.991Z,10.00
2022-08-04T04:05:36.670Z,10.25
2022-08-04T04:08:49.657Z,10.85
2022-08-04T04:11:54.455Z,10.40
2022-08-04T04:14:56.500Z,11.77
2022-08-04T04:18:03.023Z,10.23
2022-08-04T04:20:52.144Z,11.00
2022-08-04T04:23:58.452Z,11.37
2022-08-04T04:27:01.981Z,10.55
2022-08-04T04:29:42.504Z,12.00
2022-08-04T04:32:22.775Z,10.57
2022-08-04T04:35:02.978Z,14.93
2022-08-04T04:38:08.651Z,10.57
2022-08-04T04:40:49.871Z,10.63
2022-08-04T04:43:53.200Z,13.80
2022-08-04T04:46:33.223Z,10.50
2022-08-04T04:49:08.445Z,11.83
2022-08-04T04:51:42.671Z,11.30
2022-08-04T04:54:21.103Z,11.23
2022-08-04T04:56:59.259Z,12.48
2022-08-04T04:59:33.820Z,13.73
2022-08-04T05:02:45.484Z,11.30
2022-08-04T05:05:31.287Z,11.52
2022-08-04T05:08:43.141Z,11.75
2022-08-04T05:12:02.505Z,11.82
2022-08-04T05:14:41.425Z,11.45
2022-08-04T05:17:18.094Z,10.93
2022-08-04T05:19:55.035Z,12.93
2022-08-04T05:22:29.934Z,13.63
2022-08-04T05:25:03.845Z,11.70
2022-08-04T05:27:39.953Z,11.57
2022-08-04T05:30:11.891Z,12.57
2022-08-04T05:32:49.206Z,12.82
2022-08-04T05:35:55.806Z,13.13
2022-08-04T05:38:15.843Z,11.75
2022-08-04T05:40:45.594Z,15.50
2022-08-04T05:43:15.398Z,16.98
2022-08-04T05:45:48.220Z,14.90
2022-08-04T05:48:16.501Z,12.82
2022-08-04T05:50:46.090Z,15.82
2022-08-04T05:53:16.727Z,12.35
2022-08-04T05:55:56.709Z,13.20
2022-08-04T05:58:30.258Z,14.90
2022-08-04T06:01:01.849Z,13.52
2022-08-04T06:03:31.840Z,12.80
2022-08-04T06:06:00.820Z,16.70
2022-08-04T06:08:30.234Z,16.92
2022-08-04T06:11:00.430Z,17.55
2022-08-04T06:13:49.120Z,13.32
2022-08-04T06:16:29.543Z,21.10
2022-08-04T06:20:00.492Z,12.25
2022-08-04T06:21:53.201Z,11.27
2022-08-04T06:24:24.677Z,15.30
2022-08-04T06:26:54.066Z,14.43
2022-08-04T06:29:30.805Z,13.27
2022-08-04T06:32:27.157Z,11.00
2022-08-04T06:35:02.674Z,13.73
2022-08-04T06:37:42.310Z,12.73
2022-08-04T06:40:32.021Z,13.93
2022-08-04T06:43:01.768Z,10.25
2022-08-04T06:45:30.487Z,11.20
2022-08-04T06:48:01.181Z,11.98
2022-08-04T06:51:27.260Z,11.00
2022-08-04T06:53:19.467Z,10.05
2022-08-04T06:55:49.533Z,10.85
2022-08-04T06:58:18.764Z,12.00
2022-08-04T07:00:49.650Z,12.05
2022-08-04T07:03:21.695Z,12.60
2022-08-04T07:05:52.274Z,11.15
2022-08-04T07:08:21.103Z,12.70
2022-08-04T07:10:49.767Z,13.85
2022-08-04T07:13:20.183Z,11.25
2022-08-04T07:15:49.668Z,10.05
2022-08-04T07:18:19.233Z,11.70
2022-08-04T07:20:48.072Z,10.55
2022-08-04T07:23:19.780Z,9.80
2022-08-04T07:26:01.192Z,9.18
2022-08-04T07:28:41.441Z,8.70
2022-08-04T07:31:32.533Z,8.23
2022-08-04T07:34:20.587Z,6.70
2022-08-04T07:36:53.146Z,6.60
2022-08-04T07:39:28.480Z,8.27
2022-08-04T07:41:59.348Z,5.85
2022-08-04T07:44:31.316Z,4.72
2022-08-04T07:47:00.319Z,6.70
2022-08-04T07:49:56.571Z,5.35
2022-08-04T07:52:19.195Z,5.47
2022-08-04T07:54:47.464Z,4.95
2022-08-04T07:57:20.869Z,5.13
2022-08-04T08:00:08.308Z,5.60
2022-08-04T08:02:37.308Z,6.05
2022-08-04T08:05:08.852Z,8.27
2022-08-04T08:07:36.991Z,5.28
2022-08-04T08:10:19.408Z,6.38
2022-08-04T08:12:51.166Z,4.70
2022-08-04T08:15:21.012Z,5.10
2022-08-04T08:17:59.921Z,5.28
2022-08-04T08:20:32.267Z,5.22
2022-08-04T08:23:01.949Z,5.25
2022-08-04T08:25:32.386Z,5.38
2022-08-04T08:28:00.867Z,4.97
2022-08-04T08:30:31.876Z,4.75
2022-08-04T08:33:05.653Z,4.25
2022-08-04T08:35:53.055Z,5.85
2022-08-04T08:38:39.884Z,4.55
2022-08-04T08:41:39.388Z,3.95
2022-08-04T08:44:30.043Z,6.85
2022-08-04T08:47:14.020Z,8.75
2022-08-04T08:50:06.395Z,5.35
2022-08-04T08:52:57.301Z,5.25
2022-08-04T08:55:44.119Z,4.70
2022-08-04T08:58:32.619Z,5.32
2022-08-04T09:01:13.407Z,4.90
2022-08-04T09:04:23.979Z,4.13
2022-08-04T09:07:07.226Z,4.07
2022-08-04T09:09:50.479Z,5.10
2022-08-04T09:12:29.058Z,4.00
2022-08-04T09:15:06.536Z,4.22
2022-08-04T09:17:41.590Z,4.78
2022-08-04T09:20:17.551Z,5.75
2022-08-04T09:22:52.990Z,4.53
2022-08-04T09:25:26.227Z,4.57
2022-08-04T09:27:56.458Z,4.18
2022-08-04T09:30:32.687Z,5.28
2022-08-04T09:33:45.533Z,4.38
2022-08-04T09:36:30.090Z,4.18
2022-08-04T09:39:09.996Z,3.92
2022-08-04T09:41:52.437Z,6.20
2022-08-04T09:44:52.101Z,4.43
2022-08-04T09:47:39.608Z,4.53
2022-08-04T09:50:20.722Z,4.38
2022-08-04T09:52:57.343Z,3.60
2022-08-04T09:55:53.665Z,4.75
2022-08-04T09:58:40.174Z,3.50
2022-08-04T10:01:11.183Z,3.80
2022-08-04T10:03:42.546Z,3.90
2022-08-04T10:06:37.610Z,4.25
2022-08-04T10:09:19.087Z,4.00
2022-08-04T10:11:56.903Z,4.32
2022-08-04T10:14:52.661Z,3.67
2022-08-04T10:17:35.633Z,4.13
2022-08-04T10:20:10.828Z,3.92
2022-08-04T10:23:09.369Z,4.53
2022-08-04T10:26:05.189Z,3.78
2022-08-04T10:28:36.870Z,4.60
2022-08-04T10:31:10.829Z,8.70
2022-08-04T10:33:46.008Z,4.28
2022-08-04T10:36:19.685Z,4.13
2022-08-04T10:38:56.859Z,4.03
2022-08-04T10:41:33.853Z,4.10
2022-08-04T10:44:23.764Z,3.90
2022-08-04T10:46:58.345Z,4.03
2022-08-04T10:49:36.154Z,5.00
2022-08-04T10:52:09.668Z,3.67
2022-08-04T10:54:47.609Z,6.50
2022-08-04T10:57:22.286Z,4.20
2022-08-04T11:00:00.760Z,4.32
2022-08-04T11:02:41.538Z,4.35
2022-08-04T11:05:20.330Z,7.22
2022-08-04T11:07:51.278Z,5.25
2022-08-04T11:10:22.713Z,6.57
2022-08-04T11:12:59.025Z,5.22
2022-08-04T11:15:32.201Z,5.90
2022-08-04T11:18:16.301Z,5.72
2022-08-04T11:20:54.105Z,4.15
2022-08-04T11:23:28.668Z,3.97
2022-08-04T11:26:02.719Z,6.18
2022-08-04T11:28:41.858Z,4.20
2022-08-04T11:31:15.637Z,4.53
2022-08-04T11:33:57.333Z,9.93
2022-08-04T11:36:33.246Z,4.28
2022-08-04T11:39:09.308Z,4.95
2022-08-04T11:41:46.426Z,7.78
2022-08-04T11:44:23.438Z,4.10
2022-08-04T11:46:55.097Z,3.97
2022-08-04T11:49:32.268Z,4.35
2022-08-04T11:52:21.833Z,4.53
2022-08-04T11:54:52.683Z,4.10
2022-08-04T11:57:25.798Z,3.85
2022-08-04T12:00:09.926Z,3.80
2022-08-04T12:03:09.909Z,4.05
2022-08-04T12:05:48.288Z,3.60
2022-08-04T12:08:40.671Z,5.75
2022-08-04T12:11:22.752Z,3.60
2022-08-04T12:14:00.452Z,4.65
2022-08-04T12:16:36.496Z,3.78
2022-08-04T12:19:12.340Z,3.78
2022-08-04T12:21:55.825Z,5.68
2022-08-04T12:24:30.620Z,4.05
2022-08-04T12:27:04.719Z,3.97
2022-08-04T12:29:37.872Z,4.95
2022-08-04T12:32:13.084Z,4.32
2022-08-04T12:34:46.383Z,3.83
2022-08-04T12:37:24.684Z,4.30
2022-08-04T12:40:29.299Z,5.00
2022-08-04T12:42:56.071Z,3.97
2022-08-04T12:45:28.819Z,4.50
2022-08-04T12:48:00.025Z,4.53
2022-08-04T12:50:29.124Z,5.85
2022-08-04T12:53:02.052Z,3.80
2022-08-04T12:55:34.579Z,3.90
2022-08-04T12:58:03.886Z,5.13
2022-08-04T13:00:41.243Z,6.88
2022-08-04T13:03:12.687Z,5.90
2022-08-04T13:05:43.141Z,5.68
2022-08-04T13:08:15.374Z,4.85
2022-08-04T13:10:47.161Z,5.13
2022-08-04T13:13:18.838Z,5.20
2022-08-04T13:15:57.775Z,4.80
2022-08-04T13:18:30.075Z,4.63
2022-08-04T13:21:20.523Z,6.53
2022-08-04T13:24:19.094Z,4.47
2022-08-04T13:26:54.664Z,11.52
2022-08-04T13:30:00.228Z,6.53
2022-08-04T13:32:18.280Z,4.88
2022-08-04T13:34:49.541Z,6.68
2022-08-04T13:37:23.020Z,6.72
2022-08-04T13:39:55.552Z,4.70
2022-08-04T13:42:26.314Z,4.55
2022-08-04T13:44:57.793Z,4.20
2022-08-04T13:47:30.117Z,4.28
2022-08-04T13:50:15.881Z,4.88
2022-08-04T13:52:45.609Z,6.22
2022-08-04T13:55:23.673Z,4.10
2022-08-04T13:57:57.778Z,4.22
2022-08-04T14:00:29.800Z,4.97
2022-08-04T14:03:03.602Z,4.20
2022-08-04T14:06:07.949Z,5.22
2022-08-04T14:08:44.833Z,3.70
2022-08-04T14:12:06.427Z,3.88
2022-08-04T14:14:14.078Z,5.13
2022-08-04T14:16:56.920Z,4.05
2022-08-04T14:19:29.335Z,5.25
2022-08-04T14:21:59.296Z,5.90
2022-08-04T14:24:29.056Z,4.90
2022-08-04T14:27:01.976Z,3.55
2022-08-04T14:29:39.221Z,4.07
2022-08-04T14:32:13.907Z,5.60
2022-08-04T14:34:45.052Z,3.30
2022-08-04T14:37:17.233Z,3.95
2022-08-04T14:40:17.212Z,4.03
2022-08-04T14:42:54.727Z,5.28
2022-08-04T14:45:35.479Z,10.40
2022-08-04T14:48:07.048Z,4.63
2022-08-04T14:50:38.338Z,5.55
2022-08-04T14:53:08.452Z,4.05
2022-08-04T14:55:37.390Z,3.90
2022-08-04T14:58:35.957Z,4.03
2022-08-04T15:00:57.950Z,5.38
2022-08-04T15:03:26.517Z,4.22
2022-08-04T15:06:02.412Z,4.38
2022-08-04T15:08:34.357Z,4.30
2022-08-04T15:11:03.706Z,4.28
2022-08-04T15:13:33.989Z,4.88
2022-08-04T15:16:07.892Z,4.78
2022-08-04T15:18:38.778Z,3.90
2022-08-04T15:21:08.939Z,3.92
2022-08-04T15:23:39.819Z,3.88
2022-08-04T15:26:13.807Z,4.60
2022-08-04T15:28:48.123Z,4.43
2022-08-04T15:32:05.423Z,4.53
2022-08-04T15:34:07.919Z,4.18
2022-08-04T15:36:56.965Z,4.30
2022-08-04T15:39:37.079Z,4.63
2022-08-04T15:42:21.589Z,4.20
2022-08-04T15:45:20.014Z,6.68
2022-08-04T15:48:27.409Z,4.53
2022-08-04T15:51:08.103Z,4.97
2022-08-04T15:54:30.772Z,7.90
2022-08-04T15:57:03.565Z,6.70
2022-08-04T16:00:00.434Z,4.57
2022-08-04T16:02:40.592Z,5.72
2022-08-04T16:05:33.508Z,5.45
2022-08-04T16:08:09.398Z,4.93
2022-08-04T16:10:38.730Z,4.90
2022-08-04T16:13:09.016Z,5.40
2022-08-04T16:15:42.694Z,6.80
2022-08-04T16:18:25.592Z,5.07
2022-08-04T16:20:57.636Z,5.10
2022-08-04T16:24:11.042Z,5.10
2022-08-04T16:27:00.580Z,5.15
2022-08-04T16:29:40.599Z,5.30
2022-08-04T16:32:23.931Z,5.72
2022-08-04T16:34:59.996Z,6.85
2022-08-04T16:37:34.142Z,6.40
2022-08-04T16:40:44.216Z,7.60
2022-08-04T16:43:14.807Z,5.15
2022-08-04T16:45:51.809Z,8.48
2022-08-04T16:48:21.410Z,6.40
2022-08-04T16:50:54.209Z,5.60
2022-08-04T16:53:53.927Z,5.65
2022-08-04T16:56:15.117Z,5.72
2022-08-04T16:58:54.167Z,5.95
2022-08-04T17:01:33.280Z,5.65
2022-08-04T17:04:06.007Z,8.15
2022-08-04T17:06:37.272Z,5.22
2022-08-04T17:09:11.917Z,6.65
2022-08-04T17:11:40.591Z,5.63
2022-08-04T17:14:09.101Z,6.05
2022-08-04T17:16:41.691Z,5.10
2022-08-04T17:19:19.978Z,5.00
2022-08-04T17:22:02.982Z,6.57
2022-08-04T17:24:32.893Z,5.68
2022-08-04T17:27:00.962Z,7.72
2022-08-04T17:29:43.835Z,6.20
2022-08-04T17:32:19.132Z,5.50
2022-08-04T17:34:49.174Z,5.78
2022-08-04T17:37:38.260Z,5.50
2022-08-04T17:40:12.147Z,5.72
2022-08-04T17:42:41.878Z,6.00
2022-08-04T17:45:50.199Z,6.05
2022-08-04T17:48:00.620Z,7.25
2022-08-04T17:50:34.838Z,6.00
2022-08-04T17:53:12.018Z,6.45
2022-08-04T17:55:47.141Z,7.60
2022-08-04T17:58:20.873Z,6.75
2022-08-04T18:03:38.934Z,6.95
2022-08-04T18:06:13.127Z,6.78
2022-08-04T18:08:49.929Z,6.78
2022-08-04T18:11:21.969Z,8.23
2022-08-04T18:13:57.019Z,11.23
2022-08-04T18:16:27.325Z,7.28
2022-08-04T18:19:12.065Z,6.97
2022-08-04T18:21:46.347Z,6.80
2022-08-04T18:24:36.044Z,7.07
2022-08-04T18:27:20.574Z,6.90
2022-08-04T18:30:14.527Z,6.95
2022-08-04T18:32:36.576Z,7.43
2022-08-04T18:35:07.546Z,7.50
2022-08-04T18:40:39.045Z,7.88
2022-08-04T18:43:14.341Z,7.15
2022-08-04T18:45:51.225Z,6.72
2022-08-04T18:48:19.494Z,8.32
2022-08-04T18:51:10.182Z,7.47
2022-08-04T18:53:36.213Z,10.18
2022-08-04T18:56:20.050Z,8.10
2022-08-04T18:58:54.535Z,7.82
2022-08-04T19:01:30.339Z,7.03
2022-08-04T19:04:32.172Z,8.13
2022-08-04T19:07:23.401Z,9.68
2022-08-04T19:09:51.858Z,7.88
2022-08-04T19:12:26.692Z,7.05
2022-08-04T19:14:58.829Z,7.65
2022-08-04T19:17:55.076Z,8.07
2022-08-04T19:20:25.927Z,8.00
2022-08-04T19:24:10.159Z,8.93
2022-08-04T19:26:01.136Z,8.45
2022-08-04T19:28:34.076Z,8.27
2022-08-04T19:31:03.708Z,9.82
2022-08-04T19:33:58.389Z,7.78
2022-08-04T19:36:20.280Z,7.50
2022-08-04T19:38:57.120Z,7.80
2022-08-04T19:41:26.758Z,8.48
2022-08-04T19:43:56.522Z,8.05
2022-08-04T19:46:25.704Z,7.63
2022-08-04T19:48:59.274Z,8.05
2022-08-04T19:51:29.319Z,8.05
2022-08-04T19:54:02.953Z,8.05
2022-08-04T19:56:39.917Z,7.90
2022-08-04T19:59:11.037Z,11.45
2022-08-04T20:01:44.647Z,8.20
2022-08-04T20:04:14.312Z,7.82
2022-08-04T20:06:42.787Z,8.10
2022-08-04T20:09:24.879Z,8.68
2022-08-04T20:11:55.313Z,8.07
2022-08-04T20:14:31.418Z,10.40
2022-08-04T20:17:01.774Z,7.68
2022-08-04T20:19:30.519Z,10.52
2022-08-04T20:21:58.937Z,8.75
2022-08-04T20:24:37.845Z,8.48
2022-08-04T20:29:59.858Z,7.15
2022-08-04T20:32:28.973Z,10.77
2022-08-04T20:34:58.684Z,8.43
2022-08-04T20:37:56.803Z,12.20
2022-08-04T20:40:16.005Z,8.50
2022-08-04T20:42:44.802Z,5.80
2022-08-04T20:45:16.333Z,6.75
2022-08-04T20:47:46.010Z,5.72
2022-08-04T20:50:30.225Z,5.82
2022-08-04T20:52:58.967Z,5.60
2022-08-04T20:55:29.516Z,9.93
2022-08-04T20:58:03.441Z,5.50
2022-08-04T21:00:33.322Z,8.27
2022-08-04T21:03:02.398Z,5.40
2022-08-04T21:05:31.524Z,4.82
2022-08-04T21:08:00.169Z,4.90
2022-08-04T21:10:29.993Z,5.95
2022-08-04T21:12:58.014Z,4.88
2022-08-04T21:15:50.787Z,5.60
2022-08-04T21:18:17.155Z,9.25
2022-08-04T21:20:48.179Z,5.10
2022-08-04T21:23:16.403Z,5.15
2022-08-04T21:25:45.572Z,4.88
2022-08-04T21:28:20.267Z,5.03
2022-08-04T21:30:52.899Z,6.38
2022-08-04T21:33:49.642Z,5.85
2022-08-04T21:36:16.137Z,4.97
2022-08-04T21:38:51.369Z,4.60
2022-08-04T21:41:24.837Z,3.97
2022-08-04T21:43:55.772Z,5.43
2022-08-04T21:46:23.897Z,7.90
2022-08-04T21:48:53.373Z,7.25
2022-08-04T21:51:59.055Z,4.40
2022-08-04T21:54:15.047Z,4.30
2022-08-04T21:56:51.114Z,4.28
2022-08-04T21:59:23.917Z,4.47
2022-08-04T22:02:00.214Z,4.65
2022-08-04T22:04:30.823Z,3.75
2022-08-04T22:07:03.018Z,6.38
2022-08-04T22:09:41.285Z,4.43
2022-08-04T22:14:59.387Z,3.80
2022-08-04T22:17:35.191Z,4.43
2022-08-04T22:20:06.433Z,4.30
2022-08-04T22:22:58.613Z,5.90
2022-08-04T22:25:31.753Z,4.30
2022-08-04T22:28:03.634Z,4.15
2022-08-04T22:30:36.870Z,4.50
2022-08-04T22:33:07.881Z,3.88
2022-08-04T22:35:48.779Z,4.43
2022-08-04T22:38:29.071Z,4.15
2022-08-04T22:41:08.032Z,4.05
2022-08-04T22:43:37.712Z,4.93
2022-08-04T22:46:08.325Z,4.32
2022-08-04T22:48:38.063Z,4.25
2022-08-04T22:51:08.519Z,4.35
2022-08-04T22:53:37.609Z,4.72
2022-08-04T22:56:10.637Z,5.68
2022-08-04T22:58:45.466Z,4.10
2022-08-04T23:01:15.490Z,4.88
2022-08-04T23:03:55.261Z,4.43
2022-08-04T23:06:28.406Z,4.43
2022-08-04T23:08:57.536Z,4.15
2022-08-04T23:11:34.567Z,4.50
2022-08-04T23:14:04.018Z,4.18
2022-08-04T23:16:32.616Z,5.60
2022-08-04T23:19:00.836Z,4.50
2022-08-04T23:21:40.976Z,3.85
2022-08-04T23:24:15.584Z,4.20
2022-08-04T23:26:43.616Z,5.05
2022-08-04T23:29:11.631Z,4.30
2022-08-04T23:31:59.780Z,4.80
2022-08-04T23:34:29.102Z,4.18
2022-08-04T23:36:59.146Z,5.70
2022-08-04T23:40:03.911Z,4.78
2022-08-04T23:42:21.222Z,5.47
2022-08-04T23:44:49.845Z,4.93
2022-08-04T23:48:16.191Z,4.90
2022-08-04T23:50:06.556Z,4.72
2022-08-04T23:52:35.963Z,4.90
2022-08-04T23:55:07.364Z,4.88
2022-08-04T23:58:05.913Z,6.70
